createdAt,value
2018-03-04T00:00:28.030Z,49.20
2018-03-04T00:01:27.955Z,52.50
2018-03-04T00:02:27.832Z,50.10
2018-03-04T00:03:27.743Z,50.80
2018-03-04T00:04:27.678Z,49.00
2018-03-04T00:05:27.544Z,53.10
2018-03-04T00:06:27.410Z,51.80
2018-03-04T00:07:27.309Z,58.40
2018-03-04T00:08:27.247Z,59.00
2018-03-04T00:09:27.094Z,63.60
2018-03-04T00:10:27.021Z,62.60
2018-03-04T00:11:26.889Z,63.40
2018-03-04T00:12:26.794Z,61.70
2018-03-04T00:13:26.686Z,65.80
2018-03-04T00:14:26.582Z,61.80
2018-03-04T00:15:26.487Z,61.00
2018-03-04T00:16:26.425Z,58.80
2018-03-04T00:17:26.279Z,62.80
2018-03-04T00:18:26.185Z,65.20
2018-03-04T00:19:26.084Z,59.00
2018-03-04T00:20:25.973Z,49.00
2018-03-04T00:21:25.912Z,47.80
2018-03-04T00:22:25.852Z,56.30
2018-03-04T00:23:25.707Z,45.10
2018-03-04T00:24:25.593Z,52.40
2018-03-04T00:25:25.478Z,52.50
2018-03-04T00:26:25.389Z,53.60
2018-03-04T00:27:25.284Z,49.20
2018-03-04T00:28:25.200Z,49.50
2018-03-04T00:29:25.061Z,49.00
2018-03-04T00:30:24.981Z,51.60
2018-03-04T00:31:24.877Z,46.60
2018-03-04T00:32:24.789Z,50.30
2018-03-04T00:33:24.655Z,49.80
2018-03-04T00:34:24.599Z,48.00
2018-03-04T00:35:24.435Z,45.50
2018-03-04T00:36:24.356Z,46.40
2018-03-04T00:37:24.234Z,49.20
2018-03-04T00:38:24.183Z,49.00
2018-03-04T00:39:24.035Z,57.60
2018-03-04T00:40:23.952Z,57.30
2018-03-04T00:41:23.829Z,53.20
2018-03-04T00:42:23.726Z,48.20
2018-03-04T00:43:23.616Z,55.70
2018-03-04T00:44:23.514Z,56.50
2018-03-04T00:45:23.419Z,50.20
2018-03-04T00:46:23.387Z,55.90
2018-03-04T00:47:23.243Z,61.80
2018-03-04T00:48:23.138Z,65.40
2018-03-04T00:49:23.044Z,62.50
2018-03-04T00:50:22.911Z,57.50
2018-03-04T00:51:22.838Z,65.50
2018-03-04T00:52:22.770Z,65.20
2018-03-04T00:53:22.608Z,61.30
2018-03-04T00:54:22.543Z,63.90
2018-03-04T00:55:22.415Z,55.30
2018-03-04T00:56:22.320Z,52.90
2018-03-04T00:57:22.219Z,53.50
2018-03-04T00:58:22.140Z,50.80
2018-03-04T00:59:21.985Z,52.70
2018-03-04T01:00:21.881Z,63.00
2018-03-04T01:01:21.776Z,63.00
2018-03-04T01:02:21.669Z,62.00
2018-03-04T01:03:21.576Z,70.70
2018-03-04T01:04:21.503Z,69.30
2018-03-04T01:05:21.375Z,60.90
2018-03-04T01:06:21.267Z,59.40
2018-03-04T01:07:21.154Z,59.10
2018-03-04T01:08:21.051Z,53.70
2018-03-04T01:09:20.962Z,52.70
2018-03-04T01:10:20.936Z,51.90
2018-03-04T01:11:20.757Z,51.40
2018-03-04T01:12:20.669Z,53.70
2018-03-04T01:13:20.572Z,53.40
2018-03-04T01:14:20.467Z,58.50
2018-03-04T01:15:20.373Z,54.30
2018-03-04T01:16:20.314Z,63.90
2018-03-04T01:17:20.170Z,71.60
2018-03-04T01:18:20.047Z,74.70
2018-03-04T01:19:19.927Z,64.20
2018-03-04T01:20:19.845Z,58.10
2018-03-04T01:21:19.752Z,57.20
2018-03-04T01:22:19.673Z,54.40
2018-03-04T01:23:19.515Z,59.50
2018-03-04T01:24:19.446Z,62.90
2018-03-04T01:25:19.307Z,54.50
2018-03-04T01:26:19.210Z,61.30
2018-03-04T01:27:19.105Z,48.90
2018-03-04T01:28:19.074Z,60.00
2018-03-04T01:29:18.905Z,53.50
2018-03-04T01:30:18.794Z,53.20
2018-03-04T01:31:18.690Z,61.30
2018-03-04T01:32:18.593Z,58.50
2018-03-04T01:33:18.481Z,58.30
2018-03-04T01:34:18.403Z,54.00
2018-03-04T01:35:18.284Z,57.50
2018-03-04T01:36:18.169Z,54.30
2018-03-04T01:37:18.068Z,54.80
2018-03-04T01:38:18.002Z,66.70
2018-03-04T01:39:17.892Z,72.50
2018-03-04T01:40:17.849Z,70.30
2018-03-04T01:41:17.691Z,58.70
2018-03-04T01:42:17.589Z,52.50
2018-03-04T01:43:17.475Z,61.00
2018-03-04T01:44:17.371Z,54.90
2018-03-04T01:45:17.253Z,56.60
2018-03-04T01:46:17.214Z,67.00
2018-03-04T01:47:17.068Z,55.50
2018-03-04T01:48:16.977Z,63.10
2018-03-04T01:49:16.870Z,53.90
2018-03-04T01:50:16.739Z,57.00
2018-03-04T01:51:16.612Z,55.10
2018-03-04T01:52:16.564Z,65.30
2018-03-04T01:53:16.419Z,65.10
2018-03-04T01:54:16.358Z,61.60
2018-03-04T01:55:16.209Z,70.40
2018-03-04T01:56:16.110Z,59.10
2018-03-04T01:57:16.008Z,57.80
2018-03-04T01:58:15.931Z,55.30
2018-03-04T01:59:15.803Z,72.50
2018-03-04T02:00:15.712Z,73.10
2018-03-04T02:01:15.598Z,69.30
2018-03-04T02:02:15.484Z,60.70
2018-03-04T02:03:15.384Z,72.40
2018-03-04T02:04:15.352Z,69.90
2018-03-04T02:05:15.182Z,70.90
2018-03-04T02:06:15.096Z,69.20
2018-03-04T02:07:14.984Z,58.80
2018-03-04T02:08:14.896Z,64.30
2018-03-04T02:09:14.789Z,72.10
2018-03-04T02:10:14.738Z,65.10
2018-03-04T02:11:14.574Z,60.80
2018-03-04T02:12:14.459Z,69.30
2018-03-04T02:13:14.386Z,71.60
2018-03-04T02:14:14.283Z,72.40
2018-03-04T02:15:14.165Z,57.90
2018-03-04T02:16:14.105Z,70.20
2018-03-04T02:17:13.958Z,76.60
2018-03-04T02:18:13.840Z,76.30
2018-03-04T02:19:13.727Z,79.70
2018-03-04T02:20:13.620Z,70.80
2018-03-04T02:21:13.516Z,69.60
2018-03-04T02:22:13.459Z,69.80
2018-03-04T02:23:13.314Z,70.80
2018-03-04T02:24:13.205Z,70.90
2018-03-04T02:25:13.095Z,70.20
2018-03-04T02:26:13.000Z,59.70
2018-03-04T02:27:12.900Z,63.10
2018-03-04T02:28:12.819Z,72.00
2018-03-04T02:29:12.689Z,74.70
2018-03-04T02:30:12.621Z,71.10
2018-03-04T02:31:12.523Z,72.90
2018-03-04T02:32:12.387Z,69.50
2018-03-04T02:33:12.301Z,70.40
2018-03-04T02:34:12.218Z,69.60
2018-03-04T02:35:12.100Z,69.20
2018-03-04T02:36:11.978Z,71.20
2018-03-04T02:37:11.924Z,71.50
2018-03-04T02:38:11.787Z,67.60
2018-03-04T02:39:11.701Z,70.70
2018-03-04T02:40:11.650Z,69.60
2018-03-04T02:41:11.482Z,63.50
2018-03-04T02:42:11.392Z,56.60
2018-03-04T02:43:11.246Z,52.80
2018-03-04T02:44:11.172Z,56.70
2018-03-04T02:45:11.075Z,52.70
2018-03-04T02:46:10.990Z,52.60
2018-03-04T02:47:10.864Z,58.30
2018-03-04T02:48:10.748Z,63.70
2018-03-04T02:49:10.644Z,58.00
2018-03-04T02:50:10.552Z,55.80
2018-03-04T02:51:10.456Z,58.10
2018-03-04T02:52:10.376Z,56.00
2018-03-04T02:53:10.228Z,66.80
2018-03-04T02:54:10.118Z,57.50
2018-03-04T02:55:10.021Z,54.80
2018-03-04T02:56:09.929Z,55.00
2018-03-04T02:57:09.858Z,56.60
2018-03-04T02:58:09.784Z,51.80
2018-03-04T02:59:09.617Z,57.50
2018-03-04T03:00:09.564Z,60.60
2018-03-04T03:01:09.447Z,59.10
2018-03-04T03:02:09.335Z,65.10
2018-03-04T03:03:09.209Z,69.80
2018-03-04T03:04:09.144Z,60.90
2018-03-04T03:05:09.015Z,69.00
2018-03-04T03:06:08.926Z,66.00
2018-03-04T03:07:08.850Z,61.10
2018-03-04T03:08:08.727Z,57.10
2018-03-04T03:09:08.588Z,54.10
2018-03-04T03:10:08.520Z,58.30
2018-03-04T03:11:08.381Z,55.70
2018-03-04T03:12:08.279Z,53.30
2018-03-04T03:13:08.194Z,55.10
2018-03-04T03:14:08.074Z,56.20
2018-03-04T03:15:07.967Z,57.70
2018-03-04T03:16:07.914Z,60.30
2018-03-04T03:17:07.757Z,66.60
2018-03-04T03:18:07.663Z,61.50
2018-03-04T03:19:07.568Z,56.60
2018-03-04T03:20:07.455Z,57.40
2018-03-04T03:21:07.340Z,61.10
2018-03-04T03:22:07.319Z,66.30
2018-03-04T03:23:07.172Z,57.50
2018-03-04T03:24:07.085Z,54.00
2018-03-04T03:25:06.979Z,58.40
2018-03-04T03:26:06.874Z,54.30
2018-03-04T03:27:06.748Z,59.70
2018-03-04T03:28:06.683Z,54.00
2018-03-04T03:29:06.571Z,55.20
2018-03-04T03:30:06.443Z,56.10
2018-03-04T03:31:06.334Z,65.70
2018-03-04T03:32:06.235Z,54.90
2018-03-04T03:33:06.137Z,70.70
2018-03-04T03:34:06.083Z,73.50
2018-03-04T03:35:05.907Z,69.70
2018-03-04T03:36:05.806Z,66.00
2018-03-04T03:37:05.706Z,73.00
2018-03-04T03:38:05.601Z,66.80
2018-03-04T03:39:05.501Z,66.80
2018-03-04T03:40:06.223Z,67.90
2018-03-04T03:41:05.283Z,67.20
2018-03-04T03:42:05.201Z,66.50
2018-03-04T03:43:05.083Z,62.50
2018-03-04T03:44:04.985Z,63.40
2018-03-04T03:45:04.875Z,59.00
2018-03-04T03:46:04.835Z,69.30
2018-03-04T03:47:04.685Z,67.70
2018-03-04T03:48:04.632Z,63.50
2018-03-04T03:49:04.499Z,66.70
2018-03-04T03:50:04.415Z,57.60
2018-03-04T03:51:04.306Z,66.30
2018-03-04T03:52:04.234Z,58.60
2018-03-04T03:53:04.102Z,57.10
2018-03-04T03:54:04.004Z,60.80
2018-03-04T03:55:03.927Z,62.00
2018-03-04T03:56:03.801Z,67.30
2018-03-04T03:57:03.704Z,66.40
2018-03-04T03:58:03.665Z,68.10
2018-03-04T03:59:03.496Z,57.50
2018-03-04T04:00:03.354Z,55.60
2018-03-04T04:01:03.251Z,54.60
2018-03-04T04:02:03.159Z,57.10
2018-03-04T04:03:03.056Z,64.80
2018-03-04T04:04:02.981Z,61.80
2018-03-04T04:05:02.837Z,54.20
2018-03-04T04:06:02.746Z,57.00
2018-03-04T04:07:02.643Z,60.50
2018-03-04T04:08:02.548Z,57.70
2018-03-04T04:09:02.430Z,58.00
2018-03-04T04:10:02.407Z,60.60
2018-03-04T04:11:02.234Z,57.90
2018-03-04T04:12:02.166Z,70.60
2018-03-04T04:13:02.070Z,53.80
2018-03-04T04:14:01.969Z,56.10
2018-03-04T04:15:01.869Z,58.50
2018-03-04T04:16:01.798Z,55.80
2018-03-04T04:17:01.713Z,66.40
2018-03-04T04:18:01.546Z,65.60
2018-03-04T04:19:01.437Z,60.40
2018-03-04T04:20:01.354Z,59.70
2018-03-04T04:21:01.240Z,65.20
2018-03-04T04:22:01.220Z,68.70
2018-03-04T04:23:01.056Z,69.00
2018-03-04T04:24:00.942Z,72.20
2018-03-04T04:25:00.820Z,71.50
2018-03-04T04:26:00.726Z,71.20
2018-03-04T04:27:00.618Z,69.50
2018-03-04T04:28:00.623Z,70.30
2018-03-04T04:29:00.409Z,69.30
2018-03-04T04:30:00.322Z,68.30
2018-03-04T04:31:00.211Z,65.80
2018-03-04T04:32:00.110Z,69.80
2018-03-04T04:33:00.012Z,68.60
2018-03-04T04:33:59.955Z,59.40
2018-03-04T04:34:59.829Z,57.30
2018-03-04T04:35:59.724Z,59.80
2018-03-04T04:36:59.635Z,63.30
2018-03-04T04:37:59.532Z,71.10
2018-03-04T04:38:59.417Z,70.00
2018-03-04T04:39:59.382Z,70.00
2018-03-04T04:40:59.221Z,70.40
2018-03-04T04:41:59.171Z,70.80
2018-03-04T04:42:59.029Z,70.90
2018-03-04T04:43:58.934Z,71.40
2018-03-04T04:44:58.837Z,71.20
2018-03-04T04:45:58.778Z,66.60
2018-03-04T04:46:58.605Z,72.40
2018-03-04T04:47:58.529Z,72.80
2018-03-04T04:48:58.404Z,71.50
2018-03-04T04:49:58.298Z,70.20
2018-03-04T04:50:58.216Z,71.30
2018-03-04T04:51:58.142Z,69.00
2018-03-04T04:52:57.998Z,69.80
2018-03-04T04:53:57.937Z,66.90
2018-03-04T04:54:57.799Z,68.30
2018-03-04T04:55:57.704Z,57.40
2018-03-04T04:56:57.601Z,62.70
2018-03-04T04:57:57.525Z,70.90
2018-03-04T04:58:57.398Z,70.50
2018-03-04T04:59:57.290Z,71.70
2018-03-04T05:00:57.204Z,72.40
2018-03-04T05:01:57.163Z,72.10
2018-03-04T05:02:57.074Z,70.80
2018-03-04T05:03:56.975Z,67.50
2018-03-04T05:04:56.828Z,57.30
2018-03-04T05:05:56.722Z,68.60
2018-03-04T05:06:56.605Z,69.10
2018-03-04T05:07:56.541Z,73.00
2018-03-04T05:08:56.415Z,69.30
2018-03-04T05:09:56.333Z,72.70
2018-03-04T05:10:56.235Z,65.70
2018-03-04T05:11:56.123Z,54.10
2018-03-04T05:12:56.021Z,57.20
2018-03-04T05:13:55.891Z,71.50
2018-03-04T05:14:55.801Z,68.60
2018-03-04T05:15:55.728Z,65.40
2018-03-04T05:16:55.596Z,62.50
2018-03-04T05:17:55.506Z,59.50
2018-03-04T05:18:55.401Z,64.70
2018-03-04T05:19:55.311Z,63.20
2018-03-04T05:20:55.202Z,66.90
2018-03-04T05:21:55.154Z,61.50
2018-03-04T05:22:55.007Z,55.40
2018-03-04T05:23:54.904Z,68.60
2018-03-04T05:24:54.822Z,69.20
2018-03-04T05:25:54.730Z,66.30
2018-03-04T05:26:54.618Z,65.30
2018-03-04T05:27:54.620Z,64.30
2018-03-04T05:28:54.470Z,68.80
2018-03-04T05:29:54.353Z,69.80
2018-03-04T05:30:54.260Z,63.80
2018-03-04T05:31:54.188Z,70.30
2018-03-04T05:32:54.034Z,70.10
2018-03-04T05:33:53.995Z,66.30
2018-03-04T05:34:53.819Z,62.30
2018-03-04T05:35:53.711Z,72.40
2018-03-04T05:36:53.612Z,71.00
2018-03-04T05:37:53.506Z,67.10
2018-03-04T05:38:53.406Z,57.80
2018-03-04T05:39:53.366Z,53.30
2018-03-04T05:40:53.203Z,62.00
2018-03-04T05:41:53.113Z,67.20
2018-03-04T05:42:53.002Z,61.10
2018-03-04T05:43:52.926Z,64.10
2018-03-04T05:44:52.817Z,65.10
2018-03-04T05:45:52.759Z,68.80
2018-03-04T05:46:52.633Z,67.00
2018-03-04T05:47:52.515Z,63.60
2018-03-04T05:48:52.405Z,66.50
2018-03-04T05:49:52.309Z,68.00
2018-03-04T05:50:52.220Z,70.90
2018-03-04T05:51:52.174Z,69.60
2018-03-04T05:52:52.045Z,66.50
2018-03-04T05:53:51.926Z,67.50
2018-03-04T05:54:51.833Z,63.70
2018-03-04T05:55:51.764Z,68.20
2018-03-04T05:56:51.642Z,63.40
2018-03-04T05:57:51.602Z,55.80
2018-03-04T05:58:51.471Z,64.70
2018-03-04T05:59:51.357Z,72.60
2018-03-04T06:00:51.236Z,71.80
2018-03-04T06:01:51.166Z,67.00
2018-03-04T06:02:51.072Z,71.10
2018-03-04T06:03:50.958Z,74.30
2018-03-04T06:04:50.829Z,71.30
2018-03-04T06:05:50.725Z,71.00
2018-03-04T06:06:50.622Z,72.00
2018-03-04T06:07:50.513Z,72.10
2018-03-04T06:08:50.420Z,71.90
2018-03-04T06:09:50.352Z,71.30
2018-03-04T06:10:50.230Z,69.30
2018-03-04T06:11:50.127Z,70.00
2018-03-04T06:12:50.019Z,66.20
2018-03-04T06:13:49.936Z,69.00
2018-03-04T06:14:49.815Z,66.70
2018-03-04T06:15:49.769Z,72.50
2018-03-04T06:16:49.659Z,64.20
2018-03-04T06:17:49.551Z,70.80
2018-03-04T06:18:49.432Z,73.80
2018-03-04T06:19:49.386Z,74.40
2018-03-04T06:20:49.255Z,73.20
2018-03-04T06:21:49.196Z,70.70
2018-03-04T06:22:49.058Z,70.70
2018-03-04T06:23:48.994Z,75.70
2018-03-04T06:24:48.855Z,71.40
2018-03-04T06:25:48.752Z,66.50
2018-03-04T06:26:48.651Z,76.10
2018-03-04T06:27:48.567Z,73.10
2018-03-04T06:28:48.488Z,65.60
2018-03-04T06:29:48.409Z,70.10
2018-03-04T06:30:48.254Z,61.80
2018-03-04T06:31:48.147Z,60.00
2018-03-04T06:32:48.061Z,72.10
2018-03-04T06:33:48.021Z,62.00
2018-03-04T06:34:47.849Z,70.00
2018-03-04T06:35:47.758Z,76.80
2018-03-04T06:36:47.679Z,69.10
2018-03-04T06:37:47.572Z,65.30
2018-03-04T06:38:47.459Z,84.40
2018-03-04T06:39:47.389Z,73.10
2018-03-04T06:40:47.267Z,66.20
2018-03-04T06:41:47.167Z,72.70
2018-03-04T06:42:47.110Z,70.30
2018-03-04T06:43:46.992Z,86.10
2018-03-04T06:44:46.900Z,87.30
2018-03-04T06:45:46.814Z,84.80
2018-03-04T06:46:46.703Z,85.00
2018-03-04T06:47:46.608Z,67.30
2018-03-04T06:48:46.563Z,83.70
2018-03-04T06:49:46.458Z,72.90
2018-03-04T06:50:46.395Z,70.80
2018-03-04T06:51:53.748Z,68.30
2018-03-04T06:52:53.603Z,78.40
2018-03-04T06:53:53.467Z,70.50
2018-03-04T06:54:53.405Z,78.40
2018-03-04T06:55:53.263Z,77.60
2018-03-04T06:56:53.191Z,72.20
2018-03-04T06:57:53.125Z,74.80
2018-03-04T06:58:52.981Z,85.40
2018-03-04T06:59:52.873Z,69.90
2018-03-04T07:00:52.793Z,75.10
2018-03-04T07:01:52.695Z,73.30
2018-03-04T07:02:52.547Z,70.80
2018-03-04T07:03:52.507Z,73.40
2018-03-04T07:04:52.391Z,71.40
2018-03-04T07:05:52.260Z,80.90
2018-03-04T07:06:52.168Z,81.70
2018-03-04T07:07:52.065Z,84.30
2018-03-04T07:08:51.960Z,82.20
2018-03-04T07:09:51.886Z,83.70
2018-03-04T07:10:51.798Z,83.60
2018-03-04T07:11:51.684Z,84.10
2018-03-04T07:12:51.564Z,83.10
2018-03-04T07:13:51.484Z,79.30
2018-03-04T07:14:51.392Z,78.80
2018-03-04T07:15:51.333Z,68.80
2018-03-04T07:16:51.205Z,76.40
2018-03-04T07:17:51.114Z,74.60
2018-03-04T07:18:51.015Z,79.00
2018-03-04T07:19:50.917Z,75.60
2018-03-04T07:20:50.827Z,87.60
2018-03-04T07:21:50.715Z,85.30
2018-03-04T07:22:50.619Z,85.50
2018-03-04T07:23:50.537Z,81.80
2018-03-04T07:24:50.446Z,74.90
2018-03-04T07:25:50.295Z,76.30
2018-03-04T07:26:50.209Z,79.40
2018-03-04T07:27:50.156Z,83.30
2018-03-04T07:28:50.015Z,81.00
2018-03-04T07:29:49.912Z,81.50
2018-03-04T07:30:49.808Z,85.60
2018-03-04T07:31:49.710Z,82.30
2018-03-04T07:32:49.622Z,81.20
2018-03-04T07:33:49.562Z,80.40
2018-03-04T07:34:49.426Z,77.70
2018-03-04T07:35:49.340Z,57.70
2018-03-04T07:36:49.233Z,79.40
2018-03-04T07:37:49.148Z,75.10
2018-03-04T07:38:49.048Z,83.70
2018-03-04T07:39:49.007Z,78.10
2018-03-04T07:40:48.856Z,72.10
2018-03-04T07:41:48.770Z,74.00
2018-03-04T07:42:48.689Z,75.30
2018-03-04T07:43:48.584Z,69.80
2018-03-04T07:44:48.472Z,79.70
2018-03-04T07:45:48.461Z,83.00
2018-03-04T07:46:48.279Z,83.20
2018-03-04T07:47:48.203Z,85.80
2018-03-04T07:48:48.102Z,82.20
2018-03-04T07:49:48.029Z,83.50
2018-03-04T07:50:47.871Z,79.20
2018-03-04T07:51:47.814Z,63.10
2018-03-04T07:52:47.686Z,68.50
2018-03-04T07:53:47.594Z,68.60
2018-03-04T07:54:47.499Z,76.80
2018-03-04T07:55:47.392Z,81.00
2018-03-04T07:56:47.324Z,71.20
2018-03-04T07:57:47.224Z,73.00
2018-03-04T07:58:47.169Z,75.10
2018-03-04T07:59:47.004Z,90.10
2018-03-04T08:00:46.922Z,80.60
2018-03-04T08:01:46.839Z,76.30
2018-03-04T08:02:46.720Z,80.30
2018-03-04T08:03:46.728Z,85.80
2018-03-04T08:04:46.571Z,73.50
2018-03-04T08:05:46.473Z,84.80
2018-03-04T08:06:46.376Z,60.90
2018-03-04T08:07:46.291Z,71.30
2018-03-04T08:08:46.156Z,74.30
2018-03-04T08:09:46.120Z,73.80
2018-03-04T08:10:46.004Z,73.00
2018-03-04T08:11:45.883Z,67.50
2018-03-04T08:12:45.805Z,80.70
2018-03-04T08:13:45.686Z,62.40
2018-03-04T08:14:45.624Z,73.00
2018-03-04T08:15:45.540Z,77.20
2018-03-04T08:16:45.394Z,65.80
2018-03-04T08:17:45.322Z,70.50
2018-03-04T08:18:45.215Z,74.70
2018-03-04T08:19:45.117Z,80.60
2018-03-04T08:20:45.009Z,76.50
2018-03-04T08:21:44.979Z,73.60
2018-03-04T08:22:44.832Z,67.50
2018-03-04T08:23:44.754Z,75.50
2018-03-04T08:24:44.637Z,72.40
2018-03-04T08:25:44.543Z,77.50
2018-03-04T08:26:44.459Z,72.40
2018-03-04T08:27:44.393Z,72.80
2018-03-04T08:28:44.277Z,70.50
2018-03-04T08:29:44.196Z,64.40
2018-03-04T08:30:44.090Z,69.00
2018-03-04T08:31:44.003Z,80.60
2018-03-04T08:32:43.909Z,72.20
2018-03-04T08:33:43.836Z,74.90
2018-03-04T08:34:43.740Z,67.40
2018-03-04T08:35:43.621Z,80.00
2018-03-04T08:36:43.557Z,69.40
2018-03-04T08:37:43.473Z,74.80
2018-03-04T08:38:43.393Z,70.60
2018-03-04T08:39:43.343Z,72.10
2018-03-04T08:40:43.167Z,70.90
2018-03-04T08:41:43.055Z,70.90
2018-03-04T08:42:42.973Z,72.00
2018-03-04T08:43:42.882Z,66.20
2018-03-04T08:44:42.779Z,66.40
2018-03-04T08:45:42.764Z,74.90
2018-03-04T08:46:42.586Z,66.60
2018-03-04T08:47:42.518Z,70.50
2018-03-04T08:48:42.438Z,68.60
2018-03-04T08:49:42.331Z,71.60
2018-03-04T08:50:42.243Z,70.90
2018-03-04T08:51:42.189Z,74.80
2018-03-04T08:52:42.098Z,70.30
2018-03-04T08:53:42.012Z,87.30
2018-03-04T08:54:41.888Z,87.90
2018-03-04T08:55:41.795Z,72.10
2018-03-04T08:56:41.688Z,73.60
2018-03-04T08:57:41.675Z,77.90
2018-03-04T08:58:41.531Z,75.80
2018-03-04T08:59:41.448Z,72.60
2018-03-04T09:00:41.357Z,70.10
2018-03-04T09:01:41.238Z,76.00
2018-03-04T09:02:41.186Z,77.10
2018-03-04T09:03:41.148Z,70.60
2018-03-04T09:04:41.027Z,74.10
2018-03-04T09:05:40.923Z,77.80
2018-03-04T09:06:40.781Z,74.60
2018-03-04T09:07:40.701Z,73.50
2018-03-04T09:08:40.613Z,79.20
2018-03-04T09:09:40.539Z,76.50
2018-03-04T09:10:40.422Z,78.30
2018-03-04T09:11:40.308Z,73.90
2018-03-04T09:12:40.241Z,84.50
2018-03-04T09:13:40.144Z,73.10
2018-03-04T09:14:40.054Z,75.20
2018-03-04T09:15:39.995Z,68.30
2018-03-04T09:16:39.859Z,68.30
2018-03-04T09:17:39.797Z,69.90
2018-03-04T09:18:39.684Z,72.50
2018-03-04T09:19:39.630Z,71.10
2018-03-04T09:20:39.532Z,71.00
2018-03-04T09:21:39.444Z,69.70
2018-03-04T09:22:39.357Z,70.20
2018-03-04T09:23:39.272Z,70.70
2018-03-04T09:24:39.153Z,73.40
2018-03-04T09:25:39.079Z,68.40
2018-03-04T09:26:38.962Z,72.70
2018-03-04T09:27:38.919Z,65.20
2018-03-04T09:28:38.857Z,76.00
2018-03-04T09:29:38.719Z,71.50
2018-03-04T09:30:38.587Z,71.30
2018-03-04T09:31:38.519Z,69.20
2018-03-04T09:32:38.413Z,71.40
2018-03-04T09:33:38.403Z,64.30
2018-03-04T09:34:38.210Z,68.40
2018-03-04T09:35:38.129Z,67.90
2018-03-04T09:36:38.029Z,63.70
2018-03-04T09:37:37.943Z,67.50
2018-03-04T09:38:37.860Z,64.30
2018-03-04T09:39:37.811Z,63.20
2018-03-04T09:40:37.670Z,65.10
2018-03-04T09:41:37.611Z,63.30
2018-03-04T09:42:37.496Z,68.30
2018-03-04T09:43:37.439Z,62.90
2018-03-04T09:44:37.372Z,64.20
2018-03-04T09:45:37.322Z,61.90
2018-03-04T09:46:37.166Z,68.80
2018-03-04T09:47:37.091Z,61.40
2018-03-04T09:48:36.986Z,66.10
2018-03-04T09:49:36.925Z,67.10
2018-03-04T09:50:36.820Z,66.50
2018-03-04T09:51:36.804Z,72.30
2018-03-04T09:52:36.656Z,66.30
2018-03-04T09:53:36.568Z,65.20
2018-03-04T09:54:36.483Z,65.90
2018-03-04T09:55:36.381Z,65.30
2018-03-04T09:56:36.268Z,66.70
2018-03-04T09:57:36.216Z,63.80
2018-03-04T09:58:36.086Z,69.20
2018-03-04T09:59:36.038Z,63.70
2018-03-04T10:00:35.914Z,66.50
2018-03-04T10:01:35.843Z,65.60
2018-03-04T10:02:35.731Z,68.60
2018-03-04T10:03:35.709Z,70.20
2018-03-04T10:04:35.562Z,74.10
2018-03-04T10:05:35.495Z,67.10
2018-03-04T10:06:35.388Z,68.60
2018-03-04T10:07:35.298Z,65.40
2018-03-04T10:08:35.211Z,67.90
2018-03-04T10:09:35.227Z,65.00
2018-03-04T10:10:35.082Z,73.00
2018-03-04T10:11:35.003Z,64.90
2018-03-04T10:12:34.863Z,67.90
2018-03-04T10:13:34.778Z,73.70
2018-03-04T10:14:34.703Z,68.20
2018-03-04T10:15:34.648Z,65.50
2018-03-04T10:16:34.528Z,71.30
2018-03-04T10:17:34.422Z,74.00
2018-03-04T10:18:34.333Z,68.90
2018-03-04T10:19:34.255Z,64.10
2018-03-04T10:20:34.193Z,68.90
2018-03-04T10:21:34.164Z,74.60
2018-03-04T10:22:33.971Z,64.50
2018-03-04T10:23:33.894Z,68.50
2018-03-04T10:24:33.792Z,73.60
2018-03-04T10:25:33.729Z,66.30
2018-03-04T10:26:33.628Z,67.90
2018-03-04T10:27:33.571Z,69.60
2018-03-04T10:28:33.451Z,70.50
2018-03-04T10:29:33.418Z,69.30
2018-03-04T10:30:33.275Z,69.20
2018-03-04T10:31:33.285Z,70.10
2018-03-04T10:32:33.088Z,70.00
2018-03-04T10:33:33.061Z,63.40
2018-03-04T10:34:32.923Z,74.50
2018-03-04T10:35:32.835Z,67.70
2018-03-04T10:36:32.771Z,72.30
2018-03-04T10:37:32.684Z,72.50
2018-03-04T10:38:32.630Z,66.00
2018-03-04T10:39:32.518Z,68.40
2018-03-04T10:40:32.438Z,68.80
2018-03-04T10:41:32.323Z,66.90
2018-03-04T10:42:32.288Z,72.80
2018-03-04T10:43:32.221Z,65.90
2018-03-04T10:44:32.082Z,67.70
2018-03-04T10:45:32.128Z,69.10
2018-03-04T10:46:31.899Z,65.40
2018-03-04T10:47:31.780Z,65.30
2018-03-04T10:48:31.672Z,63.30
2018-03-04T10:49:31.592Z,70.70
2018-03-04T10:50:31.502Z,66.50
2018-03-04T10:51:31.425Z,60.70
2018-03-04T10:52:31.352Z,68.20
2018-03-04T10:53:31.212Z,68.30
2018-03-04T10:54:31.120Z,70.70
2018-03-04T10:55:31.040Z,65.40
2018-03-04T10:56:30.956Z,67.80
2018-03-04T10:57:30.889Z,68.30
2018-03-04T10:58:30.789Z,67.10
2018-03-04T10:59:30.674Z,67.80
2018-03-04T11:00:30.578Z,66.40
2018-03-04T11:01:30.515Z,66.60
2018-03-04T11:02:30.435Z,62.80
2018-03-04T11:03:30.397Z,65.10
2018-03-04T11:04:30.255Z,67.20
2018-03-04T11:05:30.219Z,62.20
2018-03-04T11:06:30.071Z,62.80
2018-03-04T11:07:29.977Z,73.90
2018-03-04T11:08:29.875Z,66.20
2018-03-04T11:09:29.875Z,71.20
2018-03-04T11:10:29.730Z,71.70
2018-03-04T11:11:29.647Z,63.50
2018-03-04T11:12:29.515Z,72.60
2018-03-04T11:13:29.415Z,65.30
2018-03-04T11:14:29.340Z,64.70
2018-03-04T11:15:29.239Z,62.80
2018-03-04T11:16:29.130Z,69.10
2018-03-04T11:17:29.031Z,64.70
2018-03-04T11:18:28.949Z,59.60
2018-03-04T11:19:28.865Z,62.70
2018-03-04T11:20:28.844Z,64.20
2018-03-04T11:21:28.742Z,67.30
2018-03-04T11:22:28.585Z,64.10
2018-03-04T11:23:28.510Z,61.30
2018-03-04T11:24:28.419Z,61.20
2018-03-04T11:25:28.343Z,60.90
2018-03-04T11:26:28.261Z,58.70
2018-03-04T11:27:28.204Z,60.90
2018-03-04T11:28:28.101Z,61.00
2018-03-04T11:29:27.976Z,57.60
2018-03-04T11:30:27.897Z,60.80
2018-03-04T11:31:27.822Z,63.40
2018-03-04T11:32:27.735Z,62.40
2018-03-04T11:33:27.680Z,59.30
2018-03-04T11:34:27.564Z,65.70
2018-03-04T11:35:27.504Z,64.60
2018-03-04T11:36:27.362Z,65.00
2018-03-04T11:37:27.286Z,63.90
2018-03-04T11:38:27.239Z,60.00
2018-03-04T11:39:27.146Z,60.80
2018-03-04T11:40:26.987Z,57.30
2018-03-04T11:41:26.906Z,58.20
2018-03-04T11:42:26.865Z,57.90
2018-03-04T11:43:27.003Z,60.50
2018-03-04T11:44:26.827Z,60.70
2018-03-04T11:45:26.817Z,59.30
2018-03-04T11:46:26.764Z,57.00
2018-03-04T11:47:26.655Z,62.60
2018-03-04T11:48:26.885Z,55.40
2018-03-04T11:49:26.541Z,54.10
2018-03-04T11:50:26.120Z,58.30
2018-03-04T11:51:26.086Z,57.30
2018-03-04T11:52:25.956Z,51.90
2018-03-04T11:53:25.887Z,53.10
2018-03-04T11:54:25.785Z,47.80
2018-03-04T11:55:25.688Z,52.40
2018-03-04T11:56:25.606Z,54.80
2018-03-04T11:57:25.559Z,60.20
2018-03-04T11:58:25.419Z,56.10
2018-03-04T11:59:25.323Z,57.50
2018-03-04T12:00:25.235Z,55.30
2018-03-04T12:01:25.156Z,56.80
2018-03-04T12:02:25.106Z,50.50
2018-03-04T12:03:25.025Z,52.60
2018-03-04T12:04:24.872Z,51.60
2018-03-04T12:05:24.794Z,53.40
2018-03-04T12:06:24.691Z,55.80
2018-03-04T12:07:24.664Z,52.50
2018-03-04T12:08:24.553Z,53.30
2018-03-04T12:09:24.479Z,54.90
2018-03-04T12:10:24.353Z,51.60
2018-03-04T12:11:24.265Z,54.90
2018-03-04T12:12:24.164Z,57.40
2018-03-04T12:13:24.119Z,56.00
2018-03-04T12:14:24.024Z,60.60
2018-03-04T12:15:24.012Z,50.20
2018-03-04T12:16:23.836Z,50.70
2018-03-04T12:17:23.777Z,52.40
2018-03-04T12:18:23.709Z,49.60
2018-03-04T12:19:23.594Z,57.40
2018-03-04T12:20:23.516Z,53.50
2018-03-04T12:21:23.466Z,54.00
2018-03-04T12:22:23.325Z,50.00
2018-03-04T12:23:23.271Z,46.50
2018-03-04T12:24:23.130Z,54.00
2018-03-04T12:25:23.192Z,59.10
2018-03-04T12:26:22.960Z,57.40
2018-03-04T12:27:22.913Z,60.10
2018-03-04T12:28:22.770Z,62.10
2018-03-04T12:29:22.672Z,51.60
2018-03-04T12:30:22.582Z,53.00
2018-03-04T12:31:22.533Z,55.80
2018-03-04T12:32:22.431Z,54.10
2018-03-04T12:33:22.380Z,52.70
2018-03-04T12:34:22.270Z,55.90
2018-03-04T12:35:22.156Z,52.10
2018-03-04T12:36:22.075Z,50.80
2018-03-04T12:37:21.976Z,51.40
2018-03-04T12:38:21.907Z,52.80
2018-03-04T12:39:21.897Z,51.90
2018-03-04T12:40:21.762Z,52.90
2018-03-04T12:41:21.630Z,57.60
2018-03-04T12:42:21.624Z,53.70
2018-03-04T12:43:21.473Z,55.60
2018-03-04T12:44:21.399Z,53.90
2018-03-04T12:45:21.319Z,53.20
2018-03-04T12:46:21.198Z,52.40
2018-03-04T12:47:21.139Z,54.20
2018-03-04T12:48:21.032Z,51.20
2018-03-04T12:49:20.953Z,52.10
2018-03-04T12:50:20.890Z,51.00
2018-03-04T12:51:20.854Z,47.60